createdAt,value
2022-11-20T00:02:04.349Z,4.8
2022-11-20T00:12:04.337Z,4.6
2022-11-20T00:22:04.312Z,4.5
2022-11-20T00:32:04.328Z,4.4
2022-11-20T00:42:04.300Z,4.2
2022-11-20T00:52:04.284Z,4.2
2022-11-20T01:02:04.256Z,4.1
2022-11-20T01:12:04.284Z,4.1
2022-11-20T01:22:04.245Z,4.1
2022-11-20T01:32:04.223Z,4
2022-11-20T01:42:09.399Z,3.8
2022-11-20T01:52:04.218Z,3.7
2022-11-20T02:02:04.219Z,3.8
2022-11-20T02:12:04.218Z,3.6
2022-11-20T02:22:04.209Z,3.4
2022-11-20T02:32:04.169Z,3.4
2022-11-20T02:42:04.149Z,3.3
2022-11-20T02:52:04.169Z,3.2
2022-11-20T03:02:04.129Z,3
2022-11-20T03:12:04.140Z,3
2022-11-20T03:22:04.153Z,2.9
2022-11-20T03:32:04.103Z,2.8
2022-11-20T03:42:04.103Z,2.6
2022-11-20T03:52:04.136Z,2.5
2022-11-20T04:02:04.123Z,2.6
2022-11-20T04:12:04.057Z,2.6
2022-11-20T04:22:04.096Z,2.5
2022-11-20T04:32:04.049Z,2.5
2022-11-20T04:42:04.031Z,2.4
2022-11-20T04:52:04.068Z,2.3
2022-11-20T05:02:04.103Z,2.1
2022-11-20T05:12:04.008Z,2.1
2022-11-20T05:22:04.074Z,2
2022-11-20T05:32:04.009Z,2.1
2022-11-20T05:42:03.988Z,2.4
2022-11-20T05:52:04.013Z,2.4
2022-11-20T06:02:03.995Z,2.4
2022-11-20T06:12:03.957Z,2.5
2022-11-20T06:22:03.976Z,2.4
2022-11-20T06:32:03.958Z,2.4
2022-11-20T06:42:03.916Z,2.4
2022-11-20T06:52:03.955Z,2.3
2022-11-20T07:02:03.931Z,2.1
2022-11-20T07:12:03.941Z,2
2022-11-20T07:22:03.924Z,2.1
2022-11-20T07:32:03.870Z,2.3
2022-11-20T07:42:03.928Z,2.4
2022-11-20T07:52:05.260Z,2.4
2022-11-20T08:02:03.878Z,2.6
2022-11-20T08:12:03.903Z,2.8
2022-11-20T08:22:03.866Z,3.2
2022-11-20T08:32:03.830Z,3.5
2022-11-20T08:42:03.849Z,3.8
2022-11-20T08:52:03.859Z,4.2
2022-11-20T09:02:03.813Z,4.7
2022-11-20T09:12:03.810Z,5
2022-11-20T09:22:03.826Z,5.5
2022-11-20T09:32:03.761Z,6.9
2022-11-20T09:42:03.805Z,9.6
2022-11-20T09:52:03.762Z,11.2
2022-11-20T10:02:03.709Z,12.9
2022-11-20T10:22:03.712Z,12.6
2022-11-20T10:32:03.695Z,12.3
2022-11-20T10:42:03.688Z,12.2
2022-11-20T10:52:03.682Z,11.8
2022-11-20T11:02:03.640Z,11.6
2022-11-20T11:12:07.099Z,11.5
2022-11-20T11:22:03.653Z,11.7
2022-11-20T11:32:03.586Z,12.3
2022-11-20T11:42:03.613Z,14.1
2022-11-20T11:52:03.552Z,15.3
2022-11-20T12:02:03.562Z,16
2022-11-20T12:12:03.540Z,16.4
2022-11-20T12:22:05.236Z,16.2
2022-11-20T12:32:03.462Z,16.1
2022-11-20T12:42:03.485Z,15.4
2022-11-20T12:52:03.454Z,15.3
2022-11-20T13:02:03.416Z,15.5
2022-11-20T13:12:03.437Z,16.3
2022-11-20T13:22:03.357Z,16.8
2022-11-20T13:32:07.602Z,16.8
2022-11-20T13:42:03.356Z,16.7
2022-11-20T13:52:03.310Z,16.8
2022-11-20T14:02:03.306Z,16.5
2022-11-20T14:12:03.315Z,15.8
2022-11-20T14:22:03.290Z,15.1
2022-11-20T14:32:03.242Z,14.5
2022-11-20T14:42:03.262Z,14.5
2022-11-20T14:52:03.222Z,14.5
2022-11-20T15:02:03.196Z,13.6
2022-11-20T15:12:03.195Z,13.2
2022-11-20T15:22:03.160Z,12.1
2022-11-20T15:32:03.137Z,11.1
2022-11-20T15:42:03.182Z,10.4
2022-11-20T15:52:03.095Z,10
2022-11-20T16:02:03.075Z,9.6
2022-11-20T16:12:03.051Z,9.5
2022-11-20T16:22:03.413Z,9.2
2022-11-20T16:32:03.048Z,9
2022-11-20T16:42:03.053Z,9
2022-11-20T16:52:03.045Z,8.9
2022-11-20T17:02:02.997Z,8.9
2022-11-20T17:12:03.003Z,8.9
2022-11-20T17:22:02.983Z,8.9
2022-11-20T17:32:02.939Z,8.8
2022-11-20T17:42:02.967Z,8.6
2022-11-20T17:52:02.988Z,8.5
2022-11-20T18:02:03.977Z,8.4
2022-11-20T18:12:02.877Z,8.5
2022-11-20T18:22:02.916Z,8.3
2022-11-20T18:32:02.884Z,8
2022-11-20T18:42:02.937Z,7.9
2022-11-20T18:52:02.868Z,7.8
2022-11-20T19:02:02.823Z,7.6
2022-11-20T19:12:02.797Z,7.5
2022-11-20T19:22:02.824Z,7.4
2022-11-20T19:32:02.805Z,7.3
2022-11-20T19:42:02.778Z,7.2
2022-11-20T19:52:02.796Z,7.2
2022-11-20T20:02:02.795Z,7.2
2022-11-20T20:12:02.741Z,7.1
2022-11-20T20:22:02.765Z,6.9
2022-11-20T20:32:02.703Z,6.8
2022-11-20T20:42:02.721Z,6.8
2022-11-20T20:52:02.706Z,6.8
2022-11-20T21:02:02.709Z,6.7
2022-11-20T21:12:02.667Z,6.7
2022-11-20T21:22:02.680Z,6.7
2022-11-20T21:32:02.640Z,6.7
2022-11-20T21:42:02.630Z,6.5
2022-11-20T21:52:02.630Z,6.5
2022-11-20T22:02:02.602Z,6.4
2022-11-20T22:12:02.603Z,6.2
2022-11-20T22:22:02.600Z,6.2
2022-11-20T22:32:02.553Z,6
2022-11-20T22:42:02.584Z,5.9
2022-11-20T22:52:02.559Z,5.9
2022-11-20T23:02:02.527Z,5.9
2022-11-20T23:22:02.529Z,5.8
2022-11-20T23:32:02.480Z,5.6
2022-11-20T23:42:02.503Z,5.3
2022-11-20T23:52:02.490Z,5.1
